Kennells Beach, North Carolina
Current Conditions -  °F | °C
As of 12:54 AM on Sunday 23 Nov 2014 (Local Time) from KEWN Reporting Station
Clear Clear  
Wind Chill: 41°   Ceiling: Unl
Heat Index: 41°   Visibility: 10mi
Dew Point: 36°   Wind: 0mph
Humidity: 82%   Direction: NA
Pressure: 30.32"   Gusts: NA
Location:  35.1354°N, 76.8853°W
Report Text: KEWN 230554Z AUTO 00000KT 10SM CLR 05/02 A3032 RMK AO2 SLP266 T00500022 10061 20033 58021
Loading
Personal Weather Stations






























Interactive Weather Map New forecast layout! Learn more

10-Day Weather Forecast

Advertisements
Track Severe Weather on mobile